Time;durP1;ratioP1;P1;durP2;ratioP2;P2;SDS_P1;SDS_P2;PMS_P1;PMS_P2;Temp;Humidity;BMP_temperature;BMP_pressure;BME280_temperature;BME280_humidity;BME280_pressure;Samples;Min_cycle;Max_cycle;Signal;HPM_P1;HPM_P2
2021/12/23 00:01:32;;;;;;;;;;;-4.40;99.90;;;;;;5126321;28;19935;-72
2021/12/23 00:03:59;;;;;;;;;;;-4.40;99.90;;;;;;5125257;28;19919;-72
2021/12/23 00:06:25;;;;;;;;;;;-4.30;99.90;;;;;;5125653;28;19927;-72
2021/12/23 00:08:52;;;;;;;;;;;-4.30;99.90;;;;;;5126031;28;19919;-72
2021/12/23 00:11:19;;;;;;;;;;;-4.30;99.90;;;;;;5136925;27;19941;-72
2021/12/23 00:13:58;;;;;;;;;;;-4.20;99.90;;;;;;5146142;27;19919;-72
2021/12/23 00:16:40;;;;;;;;;;;-4.20;99.90;;;;;;5126047;28;19998;-72
2021/12/23 00:19:17;;;;;;;;;;;-4.10;99.90;;;;;;5126658;28;19957;-72
2021/12/23 00:24:28;;;;;;;;;;;-4.00;99.90;;;;;;5144652;27;20012;-72
2021/12/23 00:26:54;;;;;;;;;;;-4.00;99.90;;;;;;5125992;28;19919;-72
2021/12/23 00:29:22;;;;;;;;;;;-4.00;99.90;;;;;;5125249;28;20219;-72
2021/12/23 00:31:49;;;;;;;;;;;-4.00;99.90;;;;;;5125382;28;19953;-72
2021/12/23 00:34:15;;;;;;;;;;;-3.90;99.90;;;;;;5124675;28;19919;-72
2021/12/23 00:36:44;;;;;;;;;;;-3.90;99.90;;;;;;5125468;28;19924;-72
2021/12/23 00:39:12;;;;;;;;;;;-3.90;99.90;;;;;;5124848;28;19965;-72
2021/12/23 00:41:41;;;;;;;;;;;-3.90;99.90;;;;;;5125097;28;20127;-72
2021/12/23 00:44:08;;;;;;;;;;;-3.90;99.90;;;;;;5124080;28;19983;-72
2021/12/23 00:46:36;;;;;;;;;;;-3.90;99.90;;;;;;5125354;28;20199;-72
2021/12/23 00:49:05;;;;;;;;;;;-3.80;99.90;;;;;;5142376;27;19926;-72
2021/12/23 00:51:31;;;;;;;;;;;-3.80;99.90;;;;;;5145306;27;20268;-72
2021/12/23 00:54:04;;;;;;;;;;;-3.80;99.90;;;;;;5145466;27;19920;-72
2021/12/23 00:56:31;;;;;;;;;;;-3.80;99.90;;;;;;5141442;27;19919;-72
2021/12/23 00:58:57;;;;;;;;;;;-3.80;99.90;;;;;;5146544;27;20100;-72
2021/12/23 01:01:24;;;;;;;;;;;-3.70;99.90;;;;;;5145525;27;19926;-72
2021/12/23 01:03:53;;;;;;;;;;;-3.70;99.90;;;;;;5144415;27;19920;-72
2021/12/23 01:06:20;;;;;;;;;;;-3.70;99.90;;;;;;5145441;27;19926;-72
2021/12/23 01:08:46;;;;;;;;;;;-3.60;99.90;;;;;;5145337;27;20182;-72
2021/12/23 01:11:13;;;;;;;;;;;-3.60;99.90;;;;;;5144868;27;20131;-72
2021/12/23 01:13:47;;;;;;;;;;;-3.60;99.90;;;;;;5144560;27;19990;-72
2021/12/23 01:16:25;;;;;;;;;;;-3.60;99.90;;;;;;5145352;27;19972;-72
2021/12/23 01:18:55;;;;;;;;;;;-3.60;99.90;;;;;;5144941;27;19927;-72
2021/12/23 01:21:21;;;;;;;;;;;-3.60;99.90;;;;;;5145552;27;19919;-72
2021/12/23 01:23:49;;;;;;;;;;;-3.60;99.90;;;;;;5143690;27;20223;-72
2021/12/23 01:26:19;;;;;;;;;;;-3.60;99.90;;;;;;5131467;27;19961;-72
2021/12/23 01:28:47;;;;;;;;;;;-3.60;99.90;;;;;;5124330;28;19960;-72
2021/12/23 01:31:13;;;;;;;;;;;-3.60;99.90;;;;;;5134895;27;20106;-72
2021/12/23 01:33:40;;;;;;;;;;;-3.50;99.90;;;;;;5144324;28;20141;-72
2021/12/23 01:36:08;;;;;;;;;;;-3.50;99.90;;;;;;5144920;28;19920;-72
2021/12/23 01:38:35;;;;;;;;;;;-3.40;99.90;;;;;;5144912;28;19927;-72
2021/12/23 01:41:02;;;;;;;;;;;-3.40;99.90;;;;;;5144683;28;19926;-72
2021/12/23 01:43:28;;;;;;;;;;;-3.30;99.90;;;;;;5144231;28;19926;-72
2021/12/23 01:45:55;;;;;;;;;;;-3.40;99.90;;;;;;5144256;28;20283;-72
2021/12/23 01:48:21;;;;;;;;;;;-3.30;99.90;;;;;;5144970;28;19919;-72
2021/12/23 01:50:48;;;;;;;;;;;-3.30;99.90;;;;;;5144414;28;19926;-72
2021/12/23 01:53:17;;;;;;;;;;;-3.30;99.90;;;;;;5144674;28;19926;-72
2021/12/23 01:55:43;;;;;;;;;;;-3.40;99.90;;;;;;5135866;28;19962;-72
2021/12/23 01:58:10;;;;;;;;;;;-3.40;99.90;;;;;;5124353;28;19919;-72
2021/12/23 02:00:38;;;;;;;;;;;-3.40;99.90;;;;;;5124076;28;19920;-72
2021/12/23 02:03:05;;;;;;;;;;;-3.50;99.90;;;;;;5123968;28;20253;-71
2021/12/23 02:05:32;;;;;;;;;;;-3.50;99.90;;;;;;5123580;28;19919;-72
2021/12/23 02:07:59;;;;;;;;;;;-3.60;99.90;;;;;;5124387;28;19920;-72
2021/12/23 02:10:28;;;;;;;;;;;-3.60;99.90;;;;;;5127476;28;19926;-72
2021/12/23 02:12:55;;;;;;;;;;;-3.70;99.90;;;;;;5144655;28;19990;-72
2021/12/23 02:15:22;;;;;;;;;;;-3.60;99.90;;;;;;5143481;28;19920;-72
2021/12/23 02:17:49;;;;;;;;;;;-3.60;99.90;;;;;;5144402;28;19920;-71
2021/12/23 02:20:19;;;;;;;;;;;-3.60;99.90;;;;;;5144157;28;19952;-72
2021/12/23 02:22:47;;;;;;;;;;;-3.60;99.90;;;;;;5124454;28;19926;-72
2021/12/23 02:25:13;;;;;;;;;;;-3.50;99.90;;;;;;5126274;28;19931;-72
2021/12/23 02:27:41;;;;;;;;;;;-3.50;99.90;;;;;;5144640;28;19919;-72
2021/12/23 02:30:10;;;;;;;;;;;-3.50;99.90;;;;;;5144498;28;19919;-72
2021/12/23 02:32:37;;;;;;;;;;;-3.50;99.90;;;;;;5144450;28;19930;-72
2021/12/23 02:35:03;;;;;;;;;;;-3.50;99.90;;;;;;5146382;27;19920;-71
2021/12/23 02:37:31;;;;;;;;;;;-3.50;99.90;;;;;;5148309;27;19920;-72
2021/12/23 02:39:58;;;;;;;;;;;-3.50;99.90;;;;;;5147812;27;19919;-72
2021/12/23 02:42:25;;;;;;;;;;;-3.50;99.90;;;;;;5147924;27;19923;-72
2021/12/23 02:44:51;;;;;;;;;;;-3.40;99.90;;;;;;5143360;27;19927;-72
2021/12/23 02:47:18;;;;;;;;;;;-3.40;99.90;;;;;;5127273;28;19927;-72
2021/12/23 02:49:45;;;;;;;;;;;-3.40;99.90;;;;;;5127216;28;19957;-72
2021/12/23 02:52:12;;;;;;;;;;;-3.40;99.90;;;;;;5127451;28;19920;-72
2021/12/23 02:54:39;;;;;;;;;;;-3.40;99.90;;;;;;5140760;27;20119;-72
2021/12/23 02:57:06;;;;;;;;;;;-3.30;99.90;;;;;;5147733;27;19925;-72
2021/12/23 02:59:34;;;;;;;;;;;-3.30;99.90;;;;;;5147878;27;19919;-71
2021/12/23 03:02:01;;;;;;;;;;;-3.30;99.90;;;;;;5147912;27;19919;-71
2021/12/23 03:04:27;;;;;;;;;;;-3.40;99.90;;;;;;5146424;27;19925;-72
2021/12/23 03:06:55;;;;;;;;;;;-3.40;99.90;;;;;;5147463;27;19920;-72
2021/12/23 03:09:22;;;;;;;;;;;-3.40;99.90;;;;;;5147503;27;19919;-72
2021/12/23 03:11:50;;;;;;;;;;;-3.30;99.90;;;;;;5147396;27;19919;-74
2021/12/23 03:14:16;;;;;;;;;;;-3.30;99.90;;;;;;5135985;27;19935;-72
2021/12/23 03:16:44;;;;;;;;;;;-3.40;99.90;;;;;;5127225;28;19926;-72
2021/12/23 03:19:10;;;;;;;;;;;-3.40;99.90;;;;;;5141388;27;19941;-72
2021/12/23 03:21:37;;;;;;;;;;;-3.40;99.90;;;;;;5129172;27;19919;-72
2021/12/23 03:24:04;;;;;;;;;;;-3.40;99.90;;;;;;5125960;28;20233;-71
2021/12/23 03:26:30;;;;;;;;;;;-3.40;99.90;;;;;;5126846;28;20107;-72
2021/12/23 03:28:58;;;;;;;;;;;-3.40;99.90;;;;;;5126963;28;19919;-72
2021/12/23 03:31:25;;;;;;;;;;;-3.40;99.90;;;;;;5126713;28;19920;-72
2021/12/23 03:33:52;;;;;;;;;;;-3.30;99.90;;;;;;5137862;27;19942;-72
2021/12/23 03:36:18;;;;;;;;;;;-3.30;99.90;;;;;;5147296;27;19926;-72
2021/12/23 03:38:45;;;;;;;;;;;-3.40;99.90;;;;;;5147117;27;19919;-72
2021/12/23 03:41:14;;;;;;;;;;;-3.40;99.90;;;;;;5147038;27;19920;-72
2021/12/23 03:43:41;;;;;;;;;;;-3.40;99.90;;;;;;5138031;27;19927;-72
2021/12/23 03:46:09;;;;;;;;;;;-3.40;99.90;;;;;;5125071;28;20203;-72
2021/12/23 03:48:36;;;;;;;;;;;-3.40;99.90;;;;;;5126453;28;19920;-71
2021/12/23 03:51:02;;;;;;;;;;;-3.40;99.90;;;;;;5138400;27;19919;-72
2021/12/23 03:53:29;;;;;;;;;;;-3.50;99.90;;;;;;5146452;27;19919;-72
2021/12/23 03:55:56;;;;;;;;;;;-3.50;99.90;;;;;;5145975;27;19920;-71
2021/12/23 03:58:22;;;;;;;;;;;-3.50;99.90;;;;;;5146374;27;19919;-72
2021/12/23 04:00:49;;;;;;;;;;;-3.50;99.90;;;;;;5146510;27;19919;-72
2021/12/23 04:03:17;;;;;;;;;;;-3.50;99.90;;;;;;5146598;27;19927;-72
2021/12/23 04:05:44;;;;;;;;;;;-3.50;99.90;;;;;;5145484;27;20225;-72
2021/12/23 04:08:11;;;;;;;;;;;-3.50;99.90;;;;;;5146642;27;20231;-72
2021/12/23 04:10:37;;;;;;;;;;;-3.50;99.90;;;;;;5146345;27;19923;-72
2021/12/23 04:13:07;;;;;;;;;;;-3.50;99.90;;;;;;5139506;27;19920;-71
2021/12/23 04:15:34;;;;;;;;;;;-3.40;99.90;;;;;;5124997;28;20094;-71
2021/12/23 04:18:00;;;;;;;;;;;-3.50;99.90;;;;;;5125512;28;19924;-72
2021/12/23 04:20:34;;;;;;;;;;;-3.50;99.90;;;;;;5125613;28;19923;-72
2021/12/23 04:23:02;;;;;;;;;;;-3.50;99.90;;;;;;5129792;27;19920;-72
2021/12/23 04:25:29;;;;;;;;;;;-3.50;99.90;;;;;;5145243;27;19920;-71
2021/12/23 04:27:57;;;;;;;;;;;-3.60;99.90;;;;;;5146132;27;19992;-74
2021/12/23 04:30:24;;;;;;;;;;;-3.60;99.90;;;;;;5145891;27;19926;-74
2021/12/23 04:32:51;;;;;;;;;;;-3.70;99.90;;;;;;5145768;27;20203;-72
2021/12/23 04:35:17;;;;;;;;;;;-3.70;99.90;;;;;;5144955;27;20115;-72
2021/12/23 04:37:45;;;;;;;;;;;-3.80;99.90;;;;;;5145772;27;19924;-71
2021/12/23 04:40:13;;;;;;;;;;;-3.80;99.90;;;;;;5145964;27;19926;-72
2021/12/23 04:42:39;;;;;;;;;;;-3.80;99.90;;;;;;5130656;27;19926;-72
2021/12/23 04:45:07;;;;;;;;;;;-3.70;99.90;;;;;;5141692;27;19919;-70
2021/12/23 04:47:34;;;;;;;;;;;-3.70;99.90;;;;;;5145936;27;19919;-72
2021/12/23 04:50:01;;;;;;;;;;;-3.70;99.90;;;;;;5145816;27;19919;-72
2021/12/23 04:52:27;;;;;;;;;;;-3.80;99.90;;;;;;5143871;22;19928;-70
2021/12/23 04:55:01;;;;;;;;;;;-3.70;99.90;;;;;;5111915;28;20101;-70
2021/12/23 04:57:27;;;;;;;;;;;-3.70;99.90;;;;;;5124923;28;19919;-70
2021/12/23 04:59:54;;;;;;;;;;;-3.80;99.90;;;;;;5125024;28;19919;-70
2021/12/23 05:02:20;;;;;;;;;;;-3.70;99.90;;;;;;5123848;28;20228;-70
2021/12/23 05:04:50;;;;;;;;;;;-3.70;99.90;;;;;;5118428;28;19920;-70
2021/12/23 05:07:17;;;;;;;;;;;-3.70;99.90;;;;;;5124978;28;19969;-71
2021/12/23 05:09:43;;;;;;;;;;;-3.70;99.90;;;;;;5112435;28;19920;-70
2021/12/23 05:12:12;;;;;;;;;;;-3.60;99.90;;;;;;5108895;28;19927;-70
2021/12/23 05:14:38;;;;;;;;;;;-3.60;99.90;;;;;;5123756;28;19920;-69
2021/12/23 05:17:05;;;;;;;;;;;-3.70;99.90;;;;;;5123917;28;19928;-70
2021/12/23 05:19:31;;;;;;;;;;;-3.70;99.90;;;;;;5124100;28;19920;-70
2021/12/23 05:21:58;;;;;;;;;;;-3.60;99.90;;;;;;5124599;28;20066;-69
2021/12/23 05:24:24;;;;;;;;;;;-3.60;99.90;;;;;;5124377;28;19919;-69
2021/12/23 05:26:51;;;;;;;;;;;-3.60;99.90;;;;;;5124643;28;19920;-69
2021/12/23 05:29:19;;;;;;;;;;;-3.60;99.90;;;;;;5124159;28;19924;-69
2021/12/23 05:31:46;;;;;;;;;;;-3.70;99.90;;;;;;5124213;28;19919;-70
2021/12/23 05:34:12;;;;;;;;;;;-3.60;99.90;;;;;;5124405;28;19928;-70
2021/12/23 05:36:39;;;;;;;;;;;-3.60;99.90;;;;;;5124118;28;19920;-70
2021/12/23 05:39:06;;;;;;;;;;;-3.60;99.90;;;;;;5124470;28;20092;-70
2021/12/23 05:41:32;;;;;;;;;;;-3.60;99.90;;;;;;5120109;28;19926;-69
2021/12/23 05:43:59;;;;;;;;;;;-3.60;99.90;;;;;;5119474;28;19987;-70
2021/12/23 05:46:33;;;;;;;;;;;-3.60;99.90;;;;;;5112111;28;19920;-69
2021/12/23 05:49:00;;;;;;;;;;;-3.50;99.90;;;;;;5106956;28;19928;-70
2021/12/23 05:51:26;;;;;;;;;;;-3.50;99.90;;;;;;5110893;28;19921;-70
2021/12/23 05:53:53;;;;;;;;;;;-3.50;99.90;;;;;;5103541;28;19920;-70
2021/12/23 05:56:20;;;;;;;;;;;-3.50;99.90;;;;;;5103737;28;19928;-70
2021/12/23 05:58:46;;;;;;;;;;;-3.50;99.90;;;;;;5103908;28;19983;-70
2021/12/23 06:01:13;;;;;;;;;;;-3.50;99.90;;;;;;5111572;28;20142;-70
2021/12/23 06:03:41;;;;;;;;;;;-3.50;99.90;;;;;;5123279;28;19920;-69
2021/12/23 06:06:08;;;;;;;;;;;-3.40;99.90;;;;;;5123976;28;19927;-70
2021/12/23 06:08:34;;;;;;;;;;;-3.50;99.90;;;;;;5123954;28;20237;-73
2021/12/23 06:11:01;;;;;;;;;;;-3.50;99.90;;;;;;5128104;28;19920;-66
2021/12/23 06:13:28;;;;;;;;;;;-3.40;99.90;;;;;;5127128;28;19926;-72
2021/12/23 06:15:54;;;;;;;;;;;-3.50;99.90;;;;;;5128049;28;19935;-70
2021/12/23 06:18:21;;;;;;;;;;;-3.50;99.90;;;;;;5128232;28;19926;-69
2021/12/23 06:20:49;;;;;;;;;;;-3.50;99.90;;;;;;5114895;28;19947;-70
2021/12/23 06:23:15;;;;;;;;;;;-3.50;99.90;;;;;;5107503;28;19986;-71
2021/12/23 06:25:44;;;;;;;;;;;-3.50;99.90;;;;;;5106786;28;19920;-71
2021/12/23 06:28:11;;;;;;;;;;;-3.50;99.90;;;;;;5120402;28;20110;-71
2021/12/23 06:30:37;;;;;;;;;;;-3.50;99.90;;;;;;5127520;28;19926;-70
2021/12/23 06:33:04;;;;;;;;;;;-3.50;99.90;;;;;;5127715;28;19919;-70
2021/12/23 06:35:31;;;;;;;;;;;-3.50;99.90;;;;;;5127642;28;19920;-71
2021/12/23 06:38:02;;;;;;;;;;;-3.50;99.90;;;;;;5121593;28;19926;-69
2021/12/23 06:40:29;;;;;;;;;;;-3.40;99.90;;;;;;5107615;28;19926;-69
2021/12/23 06:42:56;;;;;;;;;;;-3.40;99.90;;;;;;5120802;28;19926;-69
2021/12/23 06:45:22;;;;;;;;;;;-3.40;99.90;;;;;;5127167;28;19926;-69
2021/12/23 06:47:49;;;;;;;;;;;-3.40;99.90;;;;;;5127311;28;19920;-68
2021/12/23 06:50:18;;;;;;;;;;;-3.40;99.90;;;;;;5127092;28;19990;-68
2021/12/23 06:52:45;;;;;;;;;;;-3.40;99.90;;;;;;5126717;28;20230;-70
2021/12/23 06:55:14;;;;;;;;;;;-3.40;99.90;;;;;;5106540;28;19920;-70
2021/12/23 06:57:40;;;;;;;;;;;-3.30;99.90;;;;;;5107034;28;19920;-70
2021/12/23 07:00:08;;;;;;;;;;;-3.40;99.90;;;;;;5106813;28;19966;-70
2021/12/23 07:02:38;;;;;;;;;;;-3.30;99.90;;;;;;5109316;28;19934;-69
2021/12/23 07:05:05;;;;;;;;;;;-3.30;99.90;;;;;;5107965;28;20455;-69
2021/12/23 07:07:40;;;;;;;;;;;-3.30;99.90;;;;;;5121268;28;19926;-70
2021/12/23 07:10:07;;;;;;;;;;;-3.30;99.90;;;;;;5127042;28;19920;-70
2021/12/23 07:12:35;;;;;;;;;;;-3.30;99.90;;;;;;5114374;28;19978;-70
2021/12/23 07:15:01;;;;;;;;;;;-3.30;99.90;;;;;;5106828;28;19920;-70
2021/12/23 07:17:28;;;;;;;;;;;-3.30;99.90;;;;;;5106258;28;20215;-70
2021/12/23 07:19:54;;;;;;;;;;;-3.40;99.90;;;;;;5106262;28;20150;-70
2021/12/23 07:22:21;;;;;;;;;;;-3.40;99.90;;;;;;5108285;28;19920;-70
2021/12/23 07:24:48;;;;;;;;;;;-3.40;99.90;;;;;;5126639;28;19919;-70
2021/12/23 07:27:14;;;;;;;;;;;-3.40;99.90;;;;;;5126911;28;19919;-70
2021/12/23 07:29:42;;;;;;;;;;;-3.40;99.90;;;;;;5125885;28;20092;-70
2021/12/23 07:32:09;;;;;;;;;;;-3.40;99.90;;;;;;5126295;28;19920;-71
2021/12/23 07:34:39;;;;;;;;;;;-3.40;99.90;;;;;;5105985;28;19920;-70
2021/12/23 07:37:05;;;;;;;;;;;-3.40;99.90;;;;;;5105890;28;20051;-70
2021/12/23 07:39:32;;;;;;;;;;;-3.40;99.90;;;;;;5105517;28;20238;-70
2021/12/23 07:41:58;;;;;;;;;;;-3.40;99.90;;;;;;5105961;28;19920;-70
2021/12/23 07:44:25;;;;;;;;;;;-3.40;99.90;;;;;;5125073;28;19978;-70
2021/12/23 07:46:53;;;;;;;;;;;-3.40;99.90;;;;;;5112556;28;19920;-70
2021/12/23 07:49:20;;;;;;;;;;;-3.30;99.90;;;;;;5105828;28;19979;-67
2021/12/23 07:51:46;;;;;;;;;;;-3.30;99.90;;;;;;5105401;28;19924;-67
2021/12/23 07:54:13;;;;;;;;;;;-3.30;99.90;;;;;;5117061;28;20254;-68
2021/12/23 07:56:39;;;;;;;;;;;-3.30;99.90;;;;;;5125770;28;19926;-68
2021/12/23 07:59:06;;;;;;;;;;;-3.20;99.90;;;;;;5126131;28;19923;-68
2021/12/23 08:01:33;;;;;;;;;;;-3.20;99.90;;;;;;5119935;28;19919;-67
2021/12/23 08:04:01;;;;;;;;;;;-3.20;99.90;;;;;;5125559;28;19919;-66
2021/12/23 08:06:27;;;;;;;;;;;-3.20;99.90;;;;;;5125720;28;19920;-68
2021/12/23 08:08:54;;;;;;;;;;;-3.20;99.90;;;;;;5125730;28;20278;-70
2021/12/23 08:11:21;;;;;;;;;;;-3.10;99.90;;;;;;5125748;28;19924;-68
2021/12/23 08:13:47;;;;;;;;;;;-3.10;99.90;;;;;;5118589;28;19926;-68
2021/12/23 08:16:14;;;;;;;;;;;-3.00;99.90;;;;;;5125768;28;20096;-68
2021/12/23 08:18:40;;;;;;;;;;;-3.10;99.90;;;;;;5125411;28;19920;-67
2021/12/23 08:21:08;;;;;;;;;;;-3.00;99.90;;;;;;5125419;28;19926;-68
2021/12/23 08:23:35;;;;;;;;;;;-2.90;99.90;;;;;;5124976;28;19919;-68
2021/12/23 08:26:10;;;;;;;;;;;-3.00;99.90;;;;;;5125307;28;19926;-68
2021/12/23 08:28:37;;;;;;;;;;;-2.90;99.90;;;;;;5125193;28;19927;-68
2021/12/23 08:31:04;;;;;;;;;;;-2.90;99.90;;;;;;5124544;28;20334;-68
2021/12/23 08:33:30;;;;;;;;;;;-2.90;99.90;;;;;;5124935;28;19926;-68
2021/12/23 08:35:57;;;;;;;;;;;-2.80;99.90;;;;;;5125075;28;20228;-67
2021/12/23 08:38:25;;;;;;;;;;;-2.80;99.90;;;;;;5124891;28;20141;-68
2021/12/23 08:40:51;;;;;;;;;;;-2.70;99.90;;;;;;5125068;28;19919;-68
2021/12/23 08:43:18;;;;;;;;;;;-2.70;99.90;;;;;;5109322;28;19920;-67
2021/12/23 08:45:45;;;;;;;;;;;-2.70;99.90;;;;;;5104495;28;19926;-67
2021/12/23 08:48:11;;;;;;;;;;;-2.60;99.90;;;;;;5104446;28;19920;-67
2021/12/23 08:50:38;;;;;;;;;;;-2.60;99.90;;;;;;5104294;28;20110;-67
2021/12/23 08:53:04;;;;;;;;;;;-2.60;99.90;;;;;;5104127;28;19928;-68
2021/12/23 08:55:33;;;;;;;;;;;-2.60;99.90;;;;;;5104356;28;19928;-68
2021/12/23 08:58:03;;;;;;;;;;;-2.50;99.90;;;;;;5104573;28;20138;-67
2021/12/23 09:00:30;;;;;;;;;;;-2.60;99.90;;;;;;5104607;28;19965;-67
2021/12/23 09:02:57;;;;;;;;;;;-2.50;99.90;;;;;;5104244;28;19947;-67
2021/12/23 09:05:24;;;;;;;;;;;-2.50;99.90;;;;;;5104102;28;19924;-68
2021/12/23 09:07:50;;;;;;;;;;;-2.50;99.90;;;;;;5112155;28;19920;-67
2021/12/23 09:10:17;;;;;;;;;;;-2.50;99.90;;;;;;5124322;28;20161;-68
2021/12/23 09:12:45;;;;;;;;;;;-2.50;99.90;;;;;;5114500;28;20115;-67
2021/12/23 09:15:12;;;;;;;;;;;-2.40;99.90;;;;;;5103616;28;20104;-67
2021/12/23 09:17:39;;;;;;;;;;;-2.30;99.90;;;;;;5104208;28;19920;-67
2021/12/23 09:20:07;;;;;;;;;;;-2.30;99.90;;;;;;5103991;28;19920;-67
2021/12/23 09:22:33;;;;;;;;;;;-2.30;99.90;;;;;;5103655;28;19920;-68
2021/12/23 09:25:07;;;;;;;;;;;-2.20;99.90;;;;;;5116114;28;19926;-67
2021/12/23 09:27:38;;;;;;;;;;;-2.20;99.90;;;;;;5124400;28;19924;-65
2021/12/23 09:32:55;;;;;;;;;;;-2.10;99.90;;;;;;5123876;28;19927;-68
2021/12/23 09:35:23;;;;;;;;;;;-2.00;99.90;;;;;;5124338;28;19935;-68
2021/12/23 09:37:50;;;;;;;;;;;-2.00;99.90;;;;;;5124425;28;19920;-68
2021/12/23 09:40:17;;;;;;;;;;;-1.90;99.90;;;;;;5124396;28;20121;-68
2021/12/23 09:42:45;;;;;;;;;;;-1.80;99.90;;;;;;5115031;28;19926;-68
2021/12/23 09:45:17;;;;;;;;;;;-1.80;99.90;;;;;;5114331;28;19926;-67
2021/12/23 09:47:43;;;;;;;;;;;-1.80;99.90;;;;;;5128388;28;19920;-69
2021/12/23 09:50:12;;;;;;;;;;;-1.70;99.90;;;;;;5128511;28;19928;-68
2021/12/23 09:52:41;;;;;;;;;;;-1.60;99.90;;;;;;5128099;28;19920;-68
2021/12/23 09:55:08;;;;;;;;;;;-1.60;99.90;;;;;;5127900;28;19927;-68
2021/12/23 09:57:35;;;;;;;;;;;-1.50;99.90;;;;;;5118623;28;19920;-68
2021/12/23 10:00:01;;;;;;;;;;;-1.50;99.90;;;;;;5107746;28;19920;-68
2021/12/23 10:02:29;;;;;;;;;;;-1.40;99.90;;;;;;5107490;28;19920;-68
2021/12/23 10:04:56;;;;;;;;;;;-1.30;99.90;;;;;;5115567;28;19926;-68
2021/12/23 10:07:23;;;;;;;;;;;-1.30;99.90;;;;;;5127818;28;19920;-68
2021/12/23 10:09:59;;;;;;;;;;;-1.30;99.90;;;;;;5128140;28;19927;-68
2021/12/23 10:13:06;;;;;;;;;;;-1.20;99.90;;;;;;5124223;28;20101;-68
2021/12/23 10:27:43;;;;;;;;;;;-1.20;99.90;;;;;;5127572;28;20259;-68
2021/12/23 10:38:35;;;;;;;;;;;-1.00;99.90;;;;;;5106556;28;19967;-68
2021/12/23 10:41:04;;;;;;;;;;;-1.00;99.90;;;;;;5106560;28;19928;-67
2021/12/23 10:43:31;;;;;;;;;;;-1.00;99.90;;;;;;5117250;28;19927;-68
2021/12/23 10:46:01;;;;;;;;;;;-1.00;99.90;;;;;;5106761;28;20211;-68
2021/12/23 10:48:29;;;;;;;;;;;-0.90;99.90;;;;;;5106734;28;19920;-68
2021/12/23 10:51:02;;;;;;;;;;;-0.80;99.90;;;;;;5106080;28;19994;-68
2021/12/23 10:53:45;;;;;;;;;;;-0.80;99.90;;;;;;5131987;22;19926;-70
2021/12/23 10:59:15;;;;;;;;;;;-0.80;99.90;;;;;;5127197;28;19922;-70
2021/12/23 11:02:00;;;;;;;;;;;-0.90;99.90;;;;;;5113419;28;20221;-72
2021/12/23 11:04:28;;;;;;;;;;;-0.80;99.90;;;;;;5127006;28;19919;-73
2021/12/23 11:07:13;;;;;;;;;;;-0.80;99.90;;;;;;5107510;28;20215;-73
2021/12/23 11:09:59;;;;;;;;;;;-0.80;99.90;;;;;;5106821;28;19920;-71
2021/12/23 11:37:44;;;;;;;;;;;-0.20;99.90;;;;;;5104560;28;20266;-70
2021/12/23 11:40:25;;;;;;;;;;;-0.20;99.90;;;;;;5106083;28;19934;-70
2021/12/23 11:43:13;;;;;;;;;;;-0.10;99.90;;;;;;5105836;28;19920;-72
2021/12/23 11:45:43;;;;;;;;;;;-0.10;99.90;;;;;;5103853;28;19942;-73
2021/12/23 11:48:10;;;;;;;;;;;-0.10;99.90;;;;;;5106096;28;19999;-73
2021/12/23 11:50:53;;;;;;;;;;;-0.10;99.90;;;;;;5104899;28;19924;-71
2021/12/23 11:53:20;;;;;;;;;;;0.00;99.90;;;;;;5104972;28;19927;-72
2021/12/23 11:55:48;;;;;;;;;;;0.10;99.90;;;;;;5084897;28;19920;-71
2021/12/23 11:58:15;;;;;;;;;;;0.10;99.90;;;;;;5104282;28;19919;-71
2021/12/23 12:00:42;;;;;;;;;;;0.20;99.90;;;;;;5105740;28;19920;-70
2021/12/23 12:03:10;;;;;;;;;;;0.20;99.90;;;;;;5104371;28;19920;-70
2021/12/23 12:05:37;;;;;;;;;;;0.20;99.90;;;;;;5102286;28;19920;-70
2021/12/23 12:08:05;;;;;;;;;;;0.30;99.90;;;;;;5104015;28;20241;-70
2021/12/23 12:10:32;;;;;;;;;;;0.30;99.90;;;;;;5104636;28;19926;-72
2021/12/23 12:13:01;;;;;;;;;;;0.40;99.90;;;;;;5104412;28;19935;-71
2021/12/23 12:15:47;;;;;;;;;;;0.40;99.90;;;;;;5104033;28;20230;-71
2021/12/23 12:18:18;;;;;;;;;;;0.40;99.90;;;;;;5099727;28;19924;-73
2021/12/23 12:20:48;;;;;;;;;;;0.40;99.90;;;;;;5085231;28;19962;-71
2021/12/23 12:23:15;;;;;;;;;;;0.50;99.90;;;;;;5086690;28;19921;-74
2021/12/23 12:25:56;;;;;;;;;;;0.60;99.90;;;;;;5104356;28;19920;-71
2021/12/23 12:28:28;;;;;;;;;;;0.60;99.90;;;;;;5104315;28;20211;-72
2021/12/23 12:30:57;;;;;;;;;;;0.70;99.90;;;;;;5104660;28;19926;-71
2021/12/23 12:33:52;;;;;;;;;;;0.80;99.90;;;;;;5104479;28;20117;-71
2021/12/23 12:36:19;;;;;;;;;;;0.80;99.90;;;;;;5085171;28;19987;-72
2021/12/23 12:38:46;;;;;;;;;;;0.90;99.90;;;;;;5103062;28;19942;-71
2021/12/23 12:41:16;;;;;;;;;;;0.90;99.90;;;;;;5105313;28;20111;-73
2021/12/23 12:43:54;;;;;;;;;;;0.90;99.90;;;;;;5104254;28;19923;-71
2021/12/23 12:46:42;;;;;;;;;;;0.90;99.90;;;;;;5105105;28;19920;-70
2021/12/23 12:49:12;;;;;;;;;;;1.00;99.90;;;;;;5095510;28;19920;-72
2021/12/23 12:51:41;;;;;;;;;;;1.00;99.90;;;;;;5103007;28;19920;-71
2021/12/23 12:54:09;;;;;;;;;;;1.00;99.90;;;;;;5106263;28;19950;-72
2021/12/23 12:56:43;;;;;;;;;;;1.00;99.90;;;;;;5090384;28;20393;-72
2021/12/23 12:59:12;;;;;;;;;;;1.00;99.90;;;;;;5089349;28;19920;-73
2021/12/23 13:01:41;;;;;;;;;;;1.00;99.90;;;;;;5090200;28;20233;-71
2021/12/23 13:04:20;;;;;;;;;;;1.00;99.90;;;;;;5097700;28;19924;-71
2021/12/23 13:06:46;;;;;;;;;;;1.10;99.90;;;;;;5099299;28;20207;-72
2021/12/23 13:09:14;;;;;;;;;;;1.10;99.90;;;;;;5098828;28;19928;-71
2021/12/23 13:11:42;;;;;;;;;;;1.10;99.90;;;;;;5093252;28;19977;-72
2021/12/23 13:14:13;;;;;;;;;;;1.10;99.90;;;;;;5103234;28;19991;-73
2021/12/23 13:16:50;;;;;;;;;;;1.10;99.90;;;;;;5093723;28;19920;-72
2021/12/23 13:19:21;;;;;;;;;;;1.10;99.90;;;;;;5102015;28;19942;-71
2021/12/23 13:21:48;;;;;;;;;;;1.10;99.90;;;;;;5100651;28;19952;-72
2021/12/23 13:24:17;;;;;;;;;;;1.10;99.90;;;;;;5103904;28;19926;-72
2021/12/23 13:26:44;;;;;;;;;;;1.10;99.90;;;;;;5104068;28;19927;-72
2021/12/23 13:29:13;;;;;;;;;;;1.10;99.90;;;;;;5101266;28;19921;-71
2021/12/23 13:31:42;;;;;;;;;;;1.10;99.90;;;;;;5103680;28;19920;-72
2021/12/23 13:34:11;;;;;;;;;;;1.10;99.90;;;;;;5103244;28;19955;-72
2021/12/23 13:36:39;;;;;;;;;;;1.10;99.90;;;;;;5103822;28;20115;-71
2021/12/23 13:39:10;;;;;;;;;;;1.20;99.90;;;;;;5102998;28;19927;-72
2021/12/23 13:41:40;;;;;;;;;;;1.20;99.90;;;;;;5103722;28;20212;-72
2021/12/23 13:44:19;;;;;;;;;;;1.30;99.90;;;;;;5100281;28;20208;-71
2021/12/23 13:46:55;;;;;;;;;;;1.30;99.90;;;;;;5083559;28;19920;-71
2021/12/23 13:49:30;;;;;;;;;;;1.40;99.90;;;;;;5083432;28;19920;-73
2021/12/23 13:51:57;;;;;;;;;;;1.40;99.90;;;;;;5101483;28;20107;-70
2021/12/23 13:54:23;;;;;;;;;;;1.30;99.90;;;;;;5108799;28;19926;-72
2021/12/23 13:56:51;;;;;;;;;;;1.40;99.90;;;;;;5104071;28;19920;-72
2021/12/23 13:59:21;;;;;;;;;;;1.40;99.90;;;;;;5103666;28;20115;-72
2021/12/23 14:01:51;;;;;;;;;;;1.40;99.90;;;;;;5102646;28;19920;-72
2021/12/23 14:04:28;;;;;;;;;;;1.40;99.90;;;;;;5103755;28;20115;-71
2021/12/23 14:06:54;;;;;;;;;;;1.50;99.90;;;;;;5103761;28;19920;-71
2021/12/23 14:09:29;;;;;;;;;;;1.50;99.90;;;;;;5102422;28;19920;-73
2021/12/23 14:11:56;;;;;;;;;;;1.50;99.90;;;;;;5102724;28;19920;-71
2021/12/23 14:14:24;;;;;;;;;;;1.60;99.90;;;;;;5102770;28;19920;-71
2021/12/23 14:16:50;;;;;;;;;;;1.60;99.90;;;;;;5103503;28;19920;-71
2021/12/23 14:19:24;;;;;;;;;;;1.60;99.90;;;;;;5103635;28;19920;-72
2021/12/23 14:24:31;;;;;;;;;;;1.60;99.90;;;;;;5052012;28;20215;-71
2021/12/23 14:26:59;;;;;;;;;;;1.60;99.90;;;;;;5098893;28;19920;-72
2021/12/23 14:29:31;;;;;;;;;;;1.60;99.90;;;;;;5103609;28;19920;-71
2021/12/23 14:31:58;;;;;;;;;;;1.60;99.90;;;;;;5106752;28;19920;-70
2021/12/23 14:34:27;;;;;;;;;;;1.60;99.90;;;;;;5106256;28;19920;-74
2021/12/23 14:36:55;;;;;;;;;;;1.60;99.90;;;;;;5101369;28;19920;-73
2021/12/23 14:39:23;;;;;;;;;;;1.60;99.90;;;;;;5105434;28;19921;-73
2021/12/23 14:41:51;;;;;;;;;;;1.60;99.90;;;;;;5103364;28;19927;-74
2021/12/23 14:44:21;;;;;;;;;;;1.70;99.90;;;;;;5106816;28;19926;-74
2021/12/23 14:46:51;;;;;;;;;;;1.70;99.90;;;;;;5106801;28;20011;-73
2021/12/23 14:49:59;;;;;;;;;;;1.70;99.90;;;;;;5106675;28;19942;-74
2021/12/23 14:52:31;;;;;;;;;;;1.70;99.90;;;;;;5106242;28;19920;-73
2021/12/23 14:54:58;;;;;;;;;;;1.70;99.90;;;;;;5105890;28;19927;-73
2021/12/23 14:57:26;;;;;;;;;;;1.80;99.90;;;;;;5106671;28;19920;-73
2021/12/23 14:59:54;;;;;;;;;;;1.80;99.90;;;;;;5106750;28;19924;-73
2021/12/23 15:02:24;;;;;;;;;;;1.70;99.90;;;;;;5106752;28;19924;-74
2021/12/23 15:04:58;;;;;;;;;;;1.80;99.90;;;;;;5105596;28;19920;-74
2021/12/23 15:07:25;;;;;;;;;;;1.70;99.90;;;;;;5106814;28;19924;-73
2021/12/23 15:09:56;;;;;;;;;;;1.80;99.90;;;;;;5105981;28;19987;-73
2021/12/23 15:12:23;;;;;;;;;;;1.80;99.90;;;;;;5107069;28;19921;-72
2021/12/23 15:14:52;;;;;;;;;;;1.80;99.90;;;;;;5105529;28;19920;-72
2021/12/23 15:17:23;;;;;;;;;;;1.80;99.90;;;;;;5105067;28;19927;-73
2021/12/23 15:19:53;;;;;;;;;;;1.80;99.90;;;;;;5106145;28;19920;-73
2021/12/23 15:22:21;;;;;;;;;;;1.70;99.90;;;;;;5106367;28;19966;-74
2021/12/23 15:24:58;;;;;;;;;;;1.70;99.90;;;;;;5105950;28;19927;-71
2021/12/23 15:27:26;;;;;;;;;;;1.70;99.90;;;;;;5106362;28;19920;-74